sensor_id;sensor_type;location;lat;lon;timestamp;pressure;altitude;pressure_sealevel;temperature;humidity
11971;BME280;6045;42.682;23.294;2023-03-14T00:02:20;94827.38;;;5.97;56.83
11971;BME280;6045;42.682;23.294;2023-03-14T00:04:47;94826.47;;;5.83;54.97
11971;BME280;6045;42.682;23.294;2023-03-14T00:07:14;94825.28;;;5.86;55.02
11971;BME280;6045;42.682;23.294;2023-03-14T00:09:42;94824.88;;;5.89;54.07
11971;BME280;6045;42.682;23.294;2023-03-14T00:12:09;94835.13;;;5.98;54.16
11971;BME280;6045;42.682;23.294;2023-03-14T00:14:35;94813.81;;;5.79;50.88
11971;BME280;6045;42.682;23.294;2023-03-14T00:17:02;94813.28;;;5.90;51.40
11971;BME280;6045;42.682;23.294;2023-03-14T00:19:29;94804.56;;;6.02;50.45
11971;BME280;6045;42.682;23.294;2023-03-14T00:21:56;94811.72;;;6.08;50.00
11971;BME280;6045;42.682;23.294;2023-03-14T00:24:22;94800.25;;;6.01;51.46
11971;BME280;6045;42.682;23.294;2023-03-14T00:26:50;94802.16;;;6.07;51.11
11971;BME280;6045;42.682;23.294;2023-03-14T00:29:17;94793.97;;;6.09;50.58
11971;BME280;6045;42.682;23.294;2023-03-14T00:31:44;94788.91;;;6.14;49.86
11971;BME280;6045;42.682;23.294;2023-03-14T00:34:11;94782.56;;;6.15;50.18
11971;BME280;6045;42.682;23.294;2023-03-14T00:36:37;94787.06;;;6.14;50.19
11971;BME280;6045;42.682;23.294;2023-03-14T00:39:04;94785.00;;;6.10;49.77
11971;BME280;6045;42.682;23.294;2023-03-14T00:41:31;94784.56;;;6.00;50.23
11971;BME280;6045;42.682;23.294;2023-03-14T00:43:59;94784.72;;;5.98;50.33
11971;BME280;6045;42.682;23.294;2023-03-14T00:46:26;94788.22;;;6.05;50.07
11971;BME280;6045;42.682;23.294;2023-03-14T00:48:53;94778.88;;;6.09;50.13
11971;BME280;6045;42.682;23.294;2023-03-14T00:51:19;94783.16;;;6.10;50.12
11971;BME280;6045;42.682;23.294;2023-03-14T00:53:46;94779.28;;;6.06;50.45
11971;BME280;6045;42.682;23.294;2023-03-14T00:56:13;94784.16;;;6.03;51.50
11971;BME280;6045;42.682;23.294;2023-03-14T00:58:40;94778.44;;;5.99;53.13
11971;BME280;6045;42.682;23.294;2023-03-14T01:01:12;94771.06;;;5.95;54.06
11971;BME280;6045;42.682;23.294;2023-03-14T01:03:39;94773.41;;;5.77;54.45
11971;BME280;6045;42.682;23.294;2023-03-14T01:06:07;94770.91;;;5.69;53.94
11971;BME280;6045;42.682;23.294;2023-03-14T01:08:34;94774.50;;;5.54;54.82
11971;BME280;6045;42.682;23.294;2023-03-14T01:11:05;94766.91;;;5.45;55.73
11971;BME280;6045;42.682;23.294;2023-03-14T01:13:32;94763.47;;;5.51;56.66
11971;BME280;6045;42.682;23.294;2023-03-14T01:16:01;94759.81;;;5.52;56.70
11971;BME280;6045;42.682;23.294;2023-03-14T01:18:31;94757.31;;;5.44;57.02
11971;BME280;6045;42.682;23.294;2023-03-14T01:20:58;94750.78;;;5.46;57.68
11971;BME280;6045;42.682;23.294;2023-03-14T01:23:25;94747.34;;;5.46;57.98
11971;BME280;6045;42.682;23.294;2023-03-14T01:25:52;94747.47;;;5.38;57.83
11971;BME280;6045;42.682;23.294;2023-03-14T01:28:19;94745.72;;;5.17;58.89
11971;BME280;6045;42.682;23.294;2023-03-14T01:30:45;94747.78;;;5.22;58.08
11971;BME280;6045;42.682;23.294;2023-03-14T01:33:12;94741.72;;;5.28;58.24
11971;BME280;6045;42.682;23.294;2023-03-14T01:35:41;94734.59;;;5.28;58.76
11971;BME280;6045;42.682;23.294;2023-03-14T01:38:08;94741.06;;;5.19;58.44
11971;BME280;6045;42.682;23.294;2023-03-14T01:40:42;94739.84;;;5.22;59.53
11971;BME280;6045;42.682;23.294;2023-03-14T01:43:14;94732.53;;;5.24;59.45
11971;BME280;6045;42.682;23.294;2023-03-14T01:46:12;94736.00;;;5.24;58.79
11971;BME280;6045;42.682;23.294;2023-03-14T01:48:42;94730.31;;;5.27;59.19
11971;BME280;6045;42.682;23.294;2023-03-14T01:51:15;94726.63;;;5.28;58.35
11971;BME280;6045;42.682;23.294;2023-03-14T01:53:43;94725.00;;;5.27;58.09
11971;BME280;6045;42.682;23.294;2023-03-14T01:56:13;94719.47;;;5.22;57.90
11971;BME280;6045;42.682;23.294;2023-03-14T01:58:42;94723.75;;;5.23;58.36
11971;BME280;6045;42.682;23.294;2023-03-14T02:01:11;94720.91;;;5.25;58.81
11971;BME280;6045;42.682;23.294;2023-03-14T02:03:45;94726.00;;;5.26;58.40
11971;BME280;6045;42.682;23.294;2023-03-14T02:06:17;94719.28;;;5.24;58.43
11971;BME280;6045;42.682;23.294;2023-03-14T02:08:46;94724.16;;;5.20;58.82
11971;BME280;6045;42.682;23.294;2023-03-14T02:11:15;94714.75;;;5.18;58.88
11971;BME280;6045;42.682;23.294;2023-03-14T02:13:42;94715.75;;;5.17;58.15
11971;BME280;6045;42.682;23.294;2023-03-14T02:16:09;94711.06;;;5.12;58.04
11971;BME280;6045;42.682;23.294;2023-03-14T02:18:37;94706.38;;;5.14;58.60
11971;BME280;6045;42.682;23.294;2023-03-14T02:21:11;94707.81;;;5.17;58.55
11971;BME280;6045;42.682;23.294;2023-03-14T02:23:45;94707.00;;;5.16;58.67
11971;BME280;6045;42.682;23.294;2023-03-14T02:26:17;94710.25;;;5.18;58.52
11971;BME280;6045;42.682;23.294;2023-03-14T02:28:49;94703.97;;;5.19;58.50
11971;BME280;6045;42.682;23.294;2023-03-14T02:31:18;94704.78;;;5.20;57.60
11971;BME280;6045;42.682;23.294;2023-03-14T02:33:46;94711.09;;;5.19;57.80
11971;BME280;6045;42.682;23.294;2023-03-14T02:36:14;94710.25;;;5.18;57.82
11971;BME280;6045;42.682;23.294;2023-03-14T02:38:46;94723.91;;;5.15;57.89
11971;BME280;6045;42.682;23.294;2023-03-14T02:41:14;94712.69;;;5.13;57.61
11971;BME280;6045;42.682;23.294;2023-03-14T02:43:41;94723.47;;;5.12;58.05
11971;BME280;6045;42.682;23.294;2023-03-14T02:46:10;94719.59;;;5.08;58.15
11971;BME280;6045;42.682;23.294;2023-03-14T02:48:40;94719.59;;;5.08;58.53
11971;BME280;6045;42.682;23.294;2023-03-14T02:51:07;94717.50;;;5.03;58.69
11971;BME280;6045;42.682;23.294;2023-03-14T02:53:36;94718.13;;;5.05;58.18
11971;BME280;6045;42.682;23.294;2023-03-14T02:56:03;94721.16;;;5.02;58.30
11971;BME280;6045;42.682;23.294;2023-03-14T02:58:31;94723.19;;;5.00;57.68
11971;BME280;6045;42.682;23.294;2023-03-14T03:00:58;94727.25;;;4.96;58.24
11971;BME280;6045;42.682;23.294;2023-03-14T03:03:26;94727.25;;;4.96;58.88
11971;BME280;6045;42.682;23.294;2023-03-14T03:05:54;94721.31;;;4.94;58.60
11971;BME280;6045;42.682;23.294;2023-03-14T03:08:23;94722.53;;;4.92;59.48
11971;BME280;6045;42.682;23.294;2023-03-14T03:10:50;94726.19;;;4.91;58.62
11971;BME280;6045;42.682;23.294;2023-03-14T03:13:17;94716.53;;;4.83;58.85
11971;BME280;6045;42.682;23.294;2023-03-14T03:15:44;94726.34;;;4.82;59.06
11971;BME280;6045;42.682;23.294;2023-03-14T03:18:11;94721.84;;;4.83;59.25
11971;BME280;6045;42.682;23.294;2023-03-14T03:20:39;94721.03;;;4.82;59.18
11971;BME280;6045;42.682;23.294;2023-03-14T03:23:06;94723.84;;;4.81;58.96
11971;BME280;6045;42.682;23.294;2023-03-14T03:25:33;94712.28;;;4.82;59.35
11971;BME280;6045;42.682;23.294;2023-03-14T03:28:01;94711.25;;;4.83;59.26
11971;BME280;6045;42.682;23.294;2023-03-14T03:30:32;94721.22;;;4.81;58.84
11971;BME280;6045;42.682;23.294;2023-03-14T03:32:59;94715.91;;;4.81;58.84
11971;BME280;6045;42.682;23.294;2023-03-14T03:35:26;94712.84;;;4.77;58.65
11971;BME280;6045;42.682;23.294;2023-03-14T03:37:54;94713.69;;;4.78;58.26
11971;BME280;6045;42.682;23.294;2023-03-14T03:40:21;94712.84;;;4.77;58.51
11971;BME280;6045;42.682;23.294;2023-03-14T03:42:48;94711.19;;;4.76;58.11
11971;BME280;6045;42.682;23.294;2023-03-14T03:45:14;94720.53;;;4.72;57.98
11971;BME280;6045;42.682;23.294;2023-03-14T03:47:41;94721.38;;;4.73;58.06
11971;BME280;6045;42.682;23.294;2023-03-14T03:50:09;94721.38;;;4.73;58.18
11971;BME280;6045;42.682;23.294;2023-03-14T03:52:36;94735.34;;;4.67;58.74
11971;BME280;6045;42.682;23.294;2023-03-14T03:55:04;94735.09;;;4.62;58.15
11971;BME280;6045;42.682;23.294;2023-03-14T03:57:31;94733.28;;;4.62;58.30
11971;BME280;6045;42.682;23.294;2023-03-14T03:59:58;94729.19;;;4.60;58.49
11971;BME280;6045;42.682;23.294;2023-03-14T04:02:25;94725.28;;;4.56;59.18
11971;BME280;6045;42.682;23.294;2023-03-14T04:04:51;94725.97;;;4.43;59.34
11971;BME280;6045;42.682;23.294;2023-03-14T04:07:18;94725.25;;;4.28;60.02
11971;BME280;6045;42.682;23.294;2023-03-14T04:09:45;94734.75;;;4.23;60.06
11971;BME280;6045;42.682;23.294;2023-03-14T04:12:13;94725.16;;;4.22;59.48
11971;BME280;6045;42.682;23.294;2023-03-14T04:14:40;94725.00;;;4.23;59.19
11971;BME280;6045;42.682;23.294;2023-03-14T04:17:08;94723.78;;;4.26;59.49
11971;BME280;6045;42.682;23.294;2023-03-14T04:19:34;94720.53;;;4.24;59.55
11971;BME280;6045;42.682;23.294;2023-03-14T04:22:01;94716.03;;;4.24;59.48
11971;BME280;6045;42.682;23.294;2023-03-14T04:24:28;94708.28;;;4.23;60.24
11971;BME280;6045;42.682;23.294;2023-03-14T04:26:55;94709.28;;;4.22;59.69
11971;BME280;6045;42.682;23.294;2023-03-14T04:29:23;94703.38;;;4.20;59.57
11971;BME280;6045;42.682;23.294;2023-03-14T04:31:50;94701.44;;;5.39;87.38
11971;BME280;6045;42.682;23.294;2023-03-14T04:34:16;94695.91;;;6.87;98.31
11971;BME280;6045;42.682;23.294;2023-03-14T04:36:43;94691.97;;;7.23;93.49
11971;BME280;6045;42.682;23.294;2023-03-14T04:39:10;94685.47;;;7.76;79.49
11971;BME280;6045;42.682;23.294;2023-03-14T04:41:37;94680.72;;;8.29;69.57
11971;BME280;6045;42.682;23.294;2023-03-14T04:44:04;94679.88;;;8.66;63.53
11971;BME280;6045;42.682;23.294;2023-03-14T04:46:32;94677.53;;;9.01;60.06
11971;BME280;6045;42.682;23.294;2023-03-14T04:48:58;94670.44;;;8.88;49.50
11971;BME280;6045;42.682;23.294;2023-03-14T04:51:25;94674.25;;;8.50;48.86
11971;BME280;6045;42.682;23.294;2023-03-14T04:53:53;94672.88;;;7.96;49.27
11971;BME280;6045;42.682;23.294;2023-03-14T04:56:20;94673.63;;;7.66;50.28
11971;BME280;6045;42.682;23.294;2023-03-14T04:58:47;94673.31;;;7.36;50.82
11971;BME280;6045;42.682;23.294;2023-03-14T05:01:20;94668.69;;;7.05;51.51
11971;BME280;6045;42.682;23.294;2023-03-14T05:03:48;94673.63;;;6.82;53.18
11971;BME280;6045;42.682;23.294;2023-03-14T05:06:14;94668.53;;;6.54;53.53
11971;BME280;6045;42.682;23.294;2023-03-14T05:08:41;94677.28;;;6.35;53.59
11971;BME280;6045;42.682;23.294;2023-03-14T05:11:10;94672.38;;;6.19;54.97
11971;BME280;6045;42.682;23.294;2023-03-14T05:13:37;94669.28;;;6.09;55.64
11971;BME280;6045;42.682;23.294;2023-03-14T05:16:05;94679.72;;;6.17;56.00
11971;BME280;6045;42.682;23.294;2023-03-14T05:18:32;94676.25;;;6.36;55.26
11971;BME280;6045;42.682;23.294;2023-03-14T05:21:00;94669.53;;;6.53;54.77
11971;BME280;6045;42.682;23.294;2023-03-14T05:23:27;94666.91;;;6.66;55.03
11971;BME280;6045;42.682;23.294;2023-03-14T05:25:54;94678.31;;;6.86;54.67
11971;BME280;6045;42.682;23.294;2023-03-14T05:28:21;94668.31;;;7.02;55.06
11971;BME280;6045;42.682;23.294;2023-03-14T05:30:48;94669.28;;;7.20;54.00
11971;BME280;6045;42.682;23.294;2023-03-14T05:33:14;94668.06;;;7.80;56.27
11971;BME280;6045;42.682;23.294;2023-03-14T05:35:41;94663.75;;;8.23;58.04
11971;BME280;6045;42.682;23.294;2023-03-14T05:38:10;94655.78;;;8.55;54.91
11971;BME280;6045;42.682;23.294;2023-03-14T05:40:36;94661.69;;;9.06;59.11
11971;BME280;6045;42.682;23.294;2023-03-14T05:43:03;94671.69;;;9.53;52.77
11971;BME280;6045;42.682;23.294;2023-03-14T05:45:30;94668.84;;;9.85;50.41
11971;BME280;6045;42.682;23.294;2023-03-14T05:47:57;94657.00;;;10.10;48.30
11971;BME280;6045;42.682;23.294;2023-03-14T05:50:23;94653.25;;;10.48;46.75
11971;BME280;6045;42.682;23.294;2023-03-14T05:52:50;94655.41;;;10.80;48.24
11971;BME280;6045;42.682;23.294;2023-03-14T05:55:18;94657.28;;;11.03;45.46
11971;BME280;6045;42.682;23.294;2023-03-14T05:57:45;94663.44;;;11.50;44.74
11971;BME280;6045;42.682;23.294;2023-03-14T06:00:13;94661.34;;;11.87;43.09
11971;BME280;6045;42.682;23.294;2023-03-14T06:02:39;94657.66;;;12.04;45.97
11971;BME280;6045;42.682;23.294;2023-03-14T06:05:07;94663.13;;;12.38;44.77
11971;BME280;6045;42.682;23.294;2023-03-14T06:07:34;94648.59;;;12.62;40.19
11971;BME280;6045;42.682;23.294;2023-03-14T06:10:01;94647.47;;;12.46;41.91
11971;BME280;6045;42.682;23.294;2023-03-14T06:12:29;94649.91;;;11.91;40.47
11971;BME280;6045;42.682;23.294;2023-03-14T06:14:55;94653.66;;;11.67;39.07
11971;BME280;6045;42.682;23.294;2023-03-14T06:17:22;94651.56;;;11.81;40.64
11971;BME280;6045;42.682;23.294;2023-03-14T06:19:49;94656.28;;;12.02;40.80
11971;BME280;6045;42.682;23.294;2023-03-14T06:22:16;94655.78;;;12.16;40.66
11971;BME280;6045;42.682;23.294;2023-03-14T06:24:42;94648.06;;;12.48;40.28
11971;BME280;6045;42.682;23.294;2023-03-14T06:27:09;94656.97;;;12.82;42.00
11971;BME280;6045;42.682;23.294;2023-03-14T06:29:37;94661.22;;;13.44;39.56
11971;BME280;6045;42.682;23.294;2023-03-14T06:32:04;94665.38;;;13.73;39.76
11971;BME280;6045;42.682;23.294;2023-03-14T06:34:31;94663.22;;;13.92;37.34
11971;BME280;6045;42.682;23.294;2023-03-14T06:36:58;94659.03;;;13.80;38.02
11971;BME280;6045;42.682;23.294;2023-03-14T06:39:25;94652.25;;;13.94;39.37
11971;BME280;6045;42.682;23.294;2023-03-14T06:41:51;94642.91;;;14.23;37.54
11971;BME280;6045;42.682;23.294;2023-03-14T06:44:18;94643.47;;;14.73;36.64
11971;BME280;6045;42.682;23.294;2023-03-14T06:46:46;94649.31;;;15.24;37.61
11971;BME280;6045;42.682;23.294;2023-03-14T06:49:13;94641.72;;;15.52;34.87
11971;BME280;6045;42.682;23.294;2023-03-14T06:51:40;94634.59;;;15.73;32.30
11971;BME280;6045;42.682;23.294;2023-03-14T06:54:07;94633.69;;;16.09;32.96
11971;BME280;6045;42.682;23.294;2023-03-14T06:56:33;94622.84;;;16.76;31.31
11971;BME280;6045;42.682;23.294;2023-03-14T06:59:00;94623.41;;;17.08;29.30
11971;BME280;6045;42.682;23.294;2023-03-14T07:01:28;94615.56;;;16.92;30.22
11971;BME280;6045;42.682;23.294;2023-03-14T07:03:59;94610.72;;;16.02;29.72
11971;BME280;6045;42.682;23.294;2023-03-14T07:06:25;94619.19;;;14.15;32.05
11971;BME280;6045;42.682;23.294;2023-03-14T07:08:54;94613.28;;;14.18;37.48
11971;BME280;6045;42.682;23.294;2023-03-14T07:11:21;94612.72;;;15.28;34.84
11971;BME280;6045;42.682;23.294;2023-03-14T07:13:48;94612.94;;;16.15;32.56
11971;BME280;6045;42.682;23.294;2023-03-14T07:16:15;94626.81;;;16.43;31.34
11971;BME280;6045;42.682;23.294;2023-03-14T07:18:42;94627.63;;;15.82;30.66
11971;BME280;6045;42.682;23.294;2023-03-14T07:21:10;94621.38;;;15.35;33.26
11971;BME280;6045;42.682;23.294;2023-03-14T07:23:37;94615.75;;;15.83;35.01
11971;BME280;6045;42.682;23.294;2023-03-14T07:26:05;94612.44;;;15.61;30.84
11971;BME280;6045;42.682;23.294;2023-03-14T07:28:32;94608.56;;;15.47;31.57
11971;BME280;6045;42.682;23.294;2023-03-14T07:30:58;94606.28;;;15.34;31.79
11971;BME280;6045;42.682;23.294;2023-03-14T07:33:25;94611.59;;;15.60;30.80
11971;BME280;6045;42.682;23.294;2023-03-14T07:35:52;94601.00;;;15.96;29.72
11971;BME280;6045;42.682;23.294;2023-03-14T07:38:20;94598.41;;;15.59;32.56
11971;BME280;6045;42.682;23.294;2023-03-14T07:40:46;94595.13;;;16.04;33.39
11971;BME280;6045;42.682;23.294;2023-03-14T07:43:13;94593.13;;;15.84;29.76
11971;BME280;6045;42.682;23.294;2023-03-14T07:45:40;94592.81;;;15.34;31.45
11971;BME280;6045;42.682;23.294;2023-03-14T07:48:07;94586.50;;;15.55;32.39
11971;BME280;6045;42.682;23.294;2023-03-14T07:50:33;94589.50;;;16.25;37.35
11971;BME280;6045;42.682;23.294;2023-03-14T07:53:00;94592.91;;;16.93;30.35
11971;BME280;6045;42.682;23.294;2023-03-14T07:55:28;94582.00;;;17.84;30.39
11971;BME280;6045;42.682;23.294;2023-03-14T07:57:58;94577.81;;;18.11;27.79
11971;BME280;6045;42.682;23.294;2023-03-14T08:00:25;94582.84;;;17.74;28.99
11971;BME280;6045;42.682;23.294;2023-03-14T08:02:52;94579.34;;;17.48;35.50
11971;BME280;6045;42.682;23.294;2023-03-14T08:05:18;94579.50;;;17.97;31.37
11971;BME280;6045;42.682;23.294;2023-03-14T08:07:45;94573.25;;;18.02;31.84
11971;BME280;6045;42.682;23.294;2023-03-14T08:10:12;94576.88;;;18.85;28.54
11971;BME280;6045;42.682;23.294;2023-03-14T08:12:42;94577.38;;;19.26;29.53
11971;BME280;6045;42.682;23.294;2023-03-14T08:15:09;94578.53;;;19.77;26.55
11971;BME280;6045;42.682;23.294;2023-03-14T08:17:36;94577.78;;;19.71;28.51
11971;BME280;6045;42.682;23.294;2023-03-14T08:20:04;94575.59;;;19.73;30.32
11971;BME280;6045;42.682;23.294;2023-03-14T08:22:34;94577.03;;;20.13;29.53
11971;BME280;6045;42.682;23.294;2023-03-14T08:25:00;94571.44;;;19.81;27.81
11971;BME280;6045;42.682;23.294;2023-03-14T08:27:27;94572.38;;;19.43;30.59
11971;BME280;6045;42.682;23.294;2023-03-14T08:29:55;94569.81;;;19.56;28.97
11971;BME280;6045;42.682;23.294;2023-03-14T08:32:22;94573.63;;;19.79;28.85
11971;BME280;6045;42.682;23.294;2023-03-14T08:34:49;94568.56;;;19.44;28.77
11971;BME280;6045;42.682;23.294;2023-03-14T08:37:17;94565.91;;;19.39;28.33
11971;BME280;6045;42.682;23.294;2023-03-14T08:39:45;94556.53;;;19.78;30.73
11971;BME280;6045;42.682;23.294;2023-03-14T08:42:12;94545.34;;;20.70;25.93
11971;BME280;6045;42.682;23.294;2023-03-14T08:44:39;94547.16;;;20.93;25.55
11971;BME280;6045;42.682;23.294;2023-03-14T08:47:08;94547.16;;;20.93;26.17
11971;BME280;6045;42.682;23.294;2023-03-14T08:49:35;94538.47;;;21.28;27.22
11971;BME280;6045;42.682;23.294;2023-03-14T08:52:01;94533.28;;;21.45;26.82
11971;BME280;6045;42.682;23.294;2023-03-14T08:54:28;94525.69;;;22.02;24.15
11971;BME280;6045;42.682;23.294;2023-03-14T08:56:55;94524.78;;;21.93;24.54
11971;BME280;6045;42.682;23.294;2023-03-14T08:59:22;94523.59;;;21.53;24.21
11971;BME280;6045;42.682;23.294;2023-03-14T09:01:49;94516.72;;;21.42;23.19
11971;BME280;6045;42.682;23.294;2023-03-14T09:04:17;94511.13;;;20.69;22.94
11971;BME280;6045;42.682;23.294;2023-03-14T09:06:44;94501.06;;;20.88;23.32
11971;BME280;6045;42.682;23.294;2023-03-14T09:09:11;94497.84;;;20.67;24.53
11971;BME280;6045;42.682;23.294;2023-03-14T09:11:38;94490.16;;;21.06;23.41
11971;BME280;6045;42.682;23.294;2023-03-14T09:14:05;94486.94;;;21.04;22.15
11971;BME280;6045;42.682;23.294;2023-03-14T09:16:33;94485.94;;;20.82;24.81
11971;BME280;6045;42.682;23.294;2023-03-14T09:19:00;94483.75;;;20.84;24.09
11971;BME280;6045;42.682;23.294;2023-03-14T09:21:28;94479.81;;;21.08;23.70
11971;BME280;6045;42.682;23.294;2023-03-14T09:23:55;94471.47;;;20.86;23.08
11971;BME280;6045;42.682;23.294;2023-03-14T09:26:21;94471.16;;;20.88;22.63
11971;BME280;6045;42.682;23.294;2023-03-14T09:28:48;94461.81;;;20.94;23.39
11971;BME280;6045;42.682;23.294;2023-03-14T09:31:15;94471.13;;;20.74;22.84
11971;BME280;6045;42.682;23.294;2023-03-14T09:33:42;94454.09;;;20.69;23.53
11971;BME280;6045;42.682;23.294;2023-03-14T09:36:10;94452.22;;;21.15;22.13
11971;BME280;6045;42.682;23.294;2023-03-14T09:38:38;94450.41;;;21.10;22.45
11971;BME280;6045;42.682;23.294;2023-03-14T09:41:13;94441.94;;;20.48;25.69
11971;BME280;6045;42.682;23.294;2023-03-14T09:43:42;94436.34;;;20.58;27.46
11971;BME280;6045;42.682;23.294;2023-03-14T09:46:10;94434.91;;;20.47;25.47
11971;BME280;6045;42.682;23.294;2023-03-14T09:48:37;94432.03;;;20.89;23.49
11971;BME280;6045;42.682;23.294;2023-03-14T09:51:11;94416.28;;;20.72;22.30
11971;BME280;6045;42.682;23.294;2023-03-14T09:53:42;94416.69;;;20.10;25.10
11971;BME280;6045;42.682;23.294;2023-03-14T09:56:12;94415.19;;;20.22;24.50
11971;BME280;6045;42.682;23.294;2023-03-14T09:58:41;94403.56;;;21.00;23.63
11971;BME280;6045;42.682;23.294;2023-03-14T10:01:15;94400.78;;;20.73;23.00
11971;BME280;6045;42.682;23.294;2023-03-14T10:03:44;94395.84;;;21.07;25.04
11971;BME280;6045;42.682;23.294;2023-03-14T10:06:12;94394.75;;;21.49;23.57
11971;BME280;6045;42.682;23.294;2023-03-14T10:08:41;94400.31;;;21.57;22.04
11971;BME280;6045;42.682;23.294;2023-03-14T10:11:14;94389.69;;;21.69;22.03
11971;BME280;6045;42.682;23.294;2023-03-14T10:13:49;94383.50;;;22.05;21.12
11971;BME280;6045;42.682;23.294;2023-03-14T10:16:16;94382.84;;;22.79;21.49
11971;BME280;6045;42.682;23.294;2023-03-14T10:18:45;94373.59;;;23.50;21.09
11971;BME280;6045;42.682;23.294;2023-03-14T10:21:21;94362.00;;;24.10;20.19
11971;BME280;6045;42.682;23.294;2023-03-14T10:23:53;94347.06;;;23.51;19.97
11971;BME280;6045;42.682;23.294;2023-03-14T10:26:24;94351.88;;;21.95;21.29
11971;BME280;6045;42.682;23.294;2023-03-14T10:29:00;94347.66;;;20.67;22.45
11971;BME280;6045;42.682;23.294;2023-03-14T10:31:46;94340.22;;;20.72;23.36
11971;BME280;6045;42.682;23.294;2023-03-14T10:34:16;94331.22;;;21.18;23.51
11971;BME280;6045;42.682;23.294;2023-03-14T10:36:52;94324.03;;;21.98;21.41
11971;BME280;6045;42.682;23.294;2023-03-14T10:39:27;94314.66;;;20.87;22.79
11971;BME280;6045;42.682;23.294;2023-03-14T10:42:03;94311.16;;;21.00;21.95
11971;BME280;6045;42.682;23.294;2023-03-14T10:44:31;94311.78;;;21.24;22.47
11971;BME280;6045;42.682;23.294;2023-03-14T10:47:00;94296.13;;;20.62;25.38
11971;BME280;6045;42.682;23.294;2023-03-14T10:49:28;94284.91;;;21.09;22.23
11971;BME280;6045;42.682;23.294;2023-03-14T10:52:01;94283.94;;;21.54;22.05
11971;BME280;6045;42.682;23.294;2023-03-14T10:54:31;94276.47;;;22.18;22.27
11971;BME280;6045;42.682;23.294;2023-03-14T10:56:58;94274.38;;;22.37;22.84
11971;BME280;6045;42.682;23.294;2023-03-14T10:59:27;94280.63;;;22.68;21.45
11971;BME280;6045;42.682;23.294;2023-03-14T11:01:58;94267.44;;;22.31;21.48
11971;BME280;6045;42.682;23.294;2023-03-14T11:04:45;94257.81;;;22.56;21.97
11971;BME280;6045;42.682;23.294;2023-03-14T11:07:26;94257.50;;;22.04;21.88
11971;BME280;6045;42.682;23.294;2023-03-14T11:10:02;94242.34;;;21.04;23.50
11971;BME280;6045;42.682;23.294;2023-03-14T11:12:38;94239.59;;;20.50;24.08
11971;BME280;6045;42.682;23.294;2023-03-14T11:15:15;94223.31;;;20.64;24.63
11971;BME280;6045;42.682;23.294;2023-03-14T11:17:53;94219.59;;;21.36;24.18
11971;BME280;6045;42.682;23.294;2023-03-14T11:20:34;94218.28;;;21.69;23.24
11971;BME280;6045;42.682;23.294;2023-03-14T11:23:08;94201.53;;;22.20;22.55
11971;BME280;6045;42.682;23.294;2023-03-14T11:25:43;94190.81;;;22.55;23.73
11971;BME280;6045;42.682;23.294;2023-03-14T11:28:17;94188.94;;;22.64;24.27
11971;BME280;6045;42.682;23.294;2023-03-14T11:30:51;94192.69;;;22.76;22.30
11971;BME280;6045;42.682;23.294;2023-03-14T11:33:22;94193.03;;;22.83;22.20
11971;BME280;6045;42.682;23.294;2023-03-14T11:35:57;94184.22;;;22.86;21.76
11971;BME280;6045;42.682;23.294;2023-03-14T11:38:30;94170.00;;;23.24;21.78
11971;BME280;6045;42.682;23.294;2023-03-14T11:40:59;94170.50;;;23.94;22.28
11971;BME280;6045;42.682;23.294;2023-03-14T11:43:28;94163.72;;;24.26;21.29
11971;BME280;6045;42.682;23.294;2023-03-14T11:46:01;94160.41;;;23.35;21.01
11971;BME280;6045;42.682;23.294;2023-03-14T11:48:36;94149.59;;;22.95;22.51
11971;BME280;6045;42.682;23.294;2023-03-14T11:51:11;94142.94;;;23.61;21.82
11971;BME280;6045;42.682;23.294;2023-03-14T11:53:45;94136.38;;;24.64;21.05
11971;BME280;6045;42.682;23.294;2023-03-14T11:56:19;94140.84;;;23.67;21.03
11971;BME280;6045;42.682;23.294;2023-03-14T11:58:55;94135.88;;;23.52;23.53
11971;BME280;6045;42.682;23.294;2023-03-14T12:01:29;94131.19;;;23.44;22.65
11971;BME280;6045;42.682;23.294;2023-03-14T12:04:03;94129.84;;;24.10;21.16
11971;BME280;6045;42.682;23.294;2023-03-14T12:06:38;94109.72;;;24.61;20.57
11971;BME280;6045;42.682;23.294;2023-03-14T12:09:08;94109.63;;;24.02;22.07
11971;BME280;6045;42.682;23.294;2023-03-14T12:11:40;94104.84;;;23.82;22.06
11971;BME280;6045;42.682;23.294;2023-03-14T12:14:21;94094.78;;;23.40;21.39
11971;BME280;6045;42.682;23.294;2023-03-14T12:16:49;94096.13;;;23.89;22.20
11971;BME280;6045;42.682;23.294;2023-03-14T12:19:34;94087.16;;;24.64;22.76
11971;BME280;6045;42.682;23.294;2023-03-14T12:22:26;94078.97;;;24.64;22.08
11971;BME280;6045;42.682;23.294;2023-03-14T12:24:57;94081.34;;;24.44;21.05
11971;BME280;6045;42.682;23.294;2023-03-14T12:30:37;94077.94;;;25.27;19.19
11971;BME280;6045;42.682;23.294;2023-03-14T12:35:58;94058.56;;;25.52;20.03
11971;BME280;6045;42.682;23.294;2023-03-14T12:38:31;94063.53;;;25.71;19.24
11971;BME280;6045;42.682;23.294;2023-03-14T12:41:11;94054.31;;;25.01;20.21
11971;BME280;6045;42.682;23.294;2023-03-14T12:43:40;94044.88;;;24.11;20.00
11971;BME280;6045;42.682;23.294;2023-03-14T12:46:15;94032.66;;;24.09;20.19
11971;BME280;6045;42.682;23.294;2023-03-14T12:48:47;94043.09;;;24.44;20.39
11971;BME280;6045;42.682;23.294;2023-03-14T12:51:16;94034.69;;;24.79;19.87
11971;BME280;6045;42.682;23.294;2023-03-14T12:54:21;94023.28;;;24.47;21.63
11971;BME280;6045;42.682;23.294;2023-03-14T12:57:04;94016.38;;;25.33;20.33
11971;BME280;6045;42.682;23.294;2023-03-14T12:59:34;94013.59;;;25.41;20.42
11971;BME280;6045;42.682;23.294;2023-03-14T13:02:17;94004.88;;;25.60;19.46
11971;BME280;6045;42.682;23.294;2023-03-14T13:04:48;94002.00;;;25.56;19.01
11971;BME280;6045;42.682;23.294;2023-03-14T13:07:31;94004.31;;;25.34;19.03
11971;BME280;6045;42.682;23.294;2023-03-14T13:10:17;94001.63;;;25.13;19.17
11971;BME280;6045;42.682;23.294;2023-03-14T13:12:49;93990.00;;;24.25;19.78
11971;BME280;6045;42.682;23.294;2023-03-14T13:15:19;93988.75;;;22.95;21.10
11971;BME280;6045;42.682;23.294;2023-03-14T13:17:51;93983.75;;;23.06;21.76
11971;BME280;6045;42.682;23.294;2023-03-14T13:20:24;93982.56;;;23.67;20.70
11971;BME280;6045;42.682;23.294;2023-03-14T13:22:53;93968.16;;;23.49;20.74